Time;durP1;ratioP1;P1;durP2;ratioP2;P2;SDS_P1;SDS_P2;PMS_P1;PMS_P2;Temp;Humidity;BMP_temperature;BMP_pressure;BME280_temperature;BME280_humidity;BME280_pressure;Samples;Min_cycle;Max_cycle;Signal;HPM_P1;HPM_P2
2022/04/21 00:00:05;;;;;;;;;;;20.60;46.30;;;;;;5074516;28;19930;-74
2022/04/21 00:02:31;;;;;;;;;;;20.60;46.30;;;;;;5074019;28;20407;-74
2022/04/21 00:04:57;;;;;;;;;;;20.60;46.30;;;;;;5058883;28;20009;-72
2022/04/21 00:07:23;;;;;;;;;;;20.60;46.40;;;;;;5037872;28;19935;-72
2022/04/21 00:09:50;;;;;;;;;;;20.60;46.40;;;;;;5054848;28;19928;-72
2022/04/21 00:12:15;;;;;;;;;;;20.60;46.40;;;;;;5059066;28;19924;-73
2022/04/21 00:14:41;;;;;;;;;;;20.50;46.40;;;;;;5057647;28;20260;-71
2022/04/21 00:17:08;;;;;;;;;;;20.50;46.30;;;;;;5055153;28;20311;-73
2022/04/21 00:19:34;;;;;;;;;;;20.50;46.30;;;;;;5054659;28;19928;-73
2022/04/21 00:24:44;;;;;;;;;;;20.50;46.50;;;;;;5059629;28;19931;-73
2022/04/21 00:27:09;;;;;;;;;;;20.50;46.30;;;;;;5037969;28;19947;-73
2022/04/21 00:29:35;;;;;;;;;;;20.50;46.40;;;;;;5040100;28;19928;-73
2022/04/21 00:32:01;;;;;;;;;;;20.50;46.40;;;;;;5040282;28;19924;-73
2022/04/21 00:34:26;;;;;;;;;;;20.40;46.40;;;;;;5057436;28;19945;-73
2022/04/21 00:36:53;;;;;;;;;;;20.40;46.30;;;;;;5055843;28;19919;-75
2022/04/21 00:39:18;;;;;;;;;;;20.40;46.40;;;;;;5076124;28;19963;-72
2022/04/21 00:41:44;;;;;;;;;;;20.40;46.40;;;;;;5054865;28;19963;-74
2022/04/21 00:44:09;;;;;;;;;;;20.40;46.40;;;;;;5041454;28;19977;-74
2022/04/21 00:46:37;;;;;;;;;;;20.40;46.40;;;;;;5058724;28;19928;-74
2022/04/21 00:49:04;;;;;;;;;;;20.40;46.40;;;;;;5054127;28;19912;-73
2022/04/21 00:51:29;;;;;;;;;;;20.40;46.50;;;;;;5058827;28;20394;-73
2022/04/21 00:53:55;;;;;;;;;;;20.40;46.40;;;;;;5056465;28;19920;-72
2022/04/21 00:56:20;;;;;;;;;;;20.40;46.40;;;;;;5064147;28;19928;-74
2022/04/21 00:58:47;;;;;;;;;;;20.30;46.40;;;;;;5038893;28;19974;-74
2022/04/21 01:03:57;;;;;;;;;;;20.30;46.50;;;;;;5054907;28;20482;-75
2022/04/21 01:06:23;;;;;;;;;;;20.30;46.50;;;;;;5059966;28;19927;-75
2022/04/21 01:08:48;;;;;;;;;;;20.30;46.50;;;;;;5060568;28;19928;-74
2022/04/21 01:11:16;;;;;;;;;;;20.30;46.50;;;;;;5058326;28;20410;-81
2022/04/21 01:13:42;;;;;;;;;;;20.30;46.50;;;;;;5058759;28;20071;-80
2022/04/21 01:16:07;;;;;;;;;;;20.30;46.60;;;;;;5040800;28;20027;-78
2022/04/21 01:18:33;;;;;;;;;;;20.30;46.50;;;;;;5059673;28;19928;-77
2022/04/21 01:20:59;;;;;;;;;;;20.30;46.50;;;;;;5056632;28;19935;-78
2022/04/21 01:23:25;;;;;;;;;;;20.20;46.50;;;;;;5057022;28;19916;-81
2022/04/21 01:25:50;;;;;;;;;;;20.20;46.50;;;;;;5060011;28;20024;-78
2022/04/21 01:28:17;;;;;;;;;;;20.20;46.50;;;;;;5061043;28;19985;-81
2022/04/21 01:30:43;;;;;;;;;;;20.20;46.50;;;;;;5056585;28;20392;-78
2022/04/21 01:33:09;;;;;;;;;;;20.20;46.50;;;;;;5060444;28;19974;-81
2022/04/21 01:35:34;;;;;;;;;;;20.20;46.50;;;;;;5052555;28;19925;-83
2022/04/21 01:43:29;;;;;;;;;;;20.20;46.60;;;;;;5054994;28;19921;-74
2022/04/21 01:45:54;;;;;;;;;;;20.20;46.50;;;;;;5043656;28;19920;-72
2022/04/21 01:48:19;;;;;;;;;;;20.10;46.50;;;;;;5058146;28;20018;-74
2022/04/21 01:50:45;;;;;;;;;;;20.20;46.50;;;;;;5055091;28;19924;-72
2022/04/21 01:53:10;;;;;;;;;;;20.10;46.50;;;;;;5057651;28;19920;-72
2022/04/21 01:55:37;;;;;;;;;;;20.10;46.50;;;;;;5061515;28;19931;-72
2022/04/21 01:58:02;;;;;;;;;;;20.20;46.60;;;;;;5055104;28;20302;-72
2022/04/21 02:00:28;;;;;;;;;;;20.10;46.50;;;;;;5057678;28;19924;-73
2022/04/21 02:02:53;;;;;;;;;;;20.10;46.50;;;;;;5057354;28;19927;-73
2022/04/21 02:05:19;;;;;;;;;;;20.10;46.60;;;;;;5059156;28;20505;-72
2022/04/21 02:07:45;;;;;;;;;;;20.10;46.50;;;;;;5058150;28;19928;-72
2022/04/21 02:10:11;;;;;;;;;;;20.10;46.50;;;;;;5055519;28;19920;-72
2022/04/21 02:12:37;;;;;;;;;;;20.10;46.50;;;;;;5059121;28;19963;-73
2022/04/21 02:15:03;;;;;;;;;;;20.10;46.60;;;;;;5056303;28;19963;-72
2022/04/21 02:17:30;;;;;;;;;;;20.10;46.60;;;;;;5055118;28;20367;-72
2022/04/21 02:19:55;;;;;;;;;;;20.10;46.60;;;;;;5058009;28;19928;-73
2022/04/21 02:22:21;;;;;;;;;;;20.10;46.60;;;;;;5061906;28;20564;-72
2022/04/21 02:24:46;;;;;;;;;;;20.10;46.60;;;;;;5041056;28;20296;-72
2022/04/21 02:27:12;;;;;;;;;;;20.00;46.50;;;;;;5063215;28;20359;-74
2022/04/21 02:29:37;;;;;;;;;;;20.00;46.50;;;;;;5052569;28;20027;-72
2022/04/21 02:32:03;;;;;;;;;;;20.00;46.50;;;;;;5060815;28;19930;-72
2022/04/21 02:34:29;;;;;;;;;;;20.00;46.50;;;;;;5054700;28;19946;-74
2022/04/21 02:36:54;;;;;;;;;;;20.00;46.50;;;;;;5053555;28;20011;-73
2022/04/21 02:39:20;;;;;;;;;;;20.00;46.50;;;;;;5055065;28;20374;-72
2022/04/21 02:41:45;;;;;;;;;;;19.90;46.50;;;;;;5040920;28;20411;-73
2022/04/21 02:44:11;;;;;;;;;;;20.00;46.50;;;;;;5061760;28;19924;-74
2022/04/21 02:46:36;;;;;;;;;;;20.00;46.50;;;;;;5054870;28;19928;-77
2022/04/21 02:49:02;;;;;;;;;;;20.00;46.50;;;;;;5059482;28;19929;-73
2022/04/21 02:51:29;;;;;;;;;;;20.00;46.50;;;;;;5057285;28;19924;-79
2022/04/21 02:59:23;;;;;;;;;;;20.00;46.50;;;;;;5055440;28;19920;-76
2022/04/21 03:01:48;;;;;;;;;;;20.00;46.50;;;;;;5054729;28;19920;-75
2022/04/21 03:04:14;;;;;;;;;;;20.00;46.50;;;;;;5054938;28;19975;-73
2022/04/21 03:06:39;;;;;;;;;;;19.90;46.60;;;;;;5058705;28;19944;-72
2022/04/21 03:09:05;;;;;;;;;;;19.90;46.50;;;;;;5049918;28;19920;-77
2022/04/21 03:11:30;;;;;;;;;;;19.90;46.50;;;;;;5063055;28;19924;-82
2022/04/21 03:13:56;;;;;;;;;;;19.90;46.50;;;;;;5076392;28;19931;-78
2022/04/21 03:16:21;;;;;;;;;;;19.90;46.50;;;;;;5059528;28;19927;-77
2022/04/21 03:18:47;;;;;;;;;;;19.90;46.50;;;;;;5057694;28;19927;-75
2022/04/21 03:26:41;;;;;;;;;;;19.90;46.50;;;;;;5056407;28;19928;-80
2022/04/21 03:29:06;;;;;;;;;;;19.90;46.50;;;;;;5058527;28;19924;-81
2022/04/21 03:31:32;;;;;;;;;;;19.90;46.50;;;;;;5062010;28;19920;-75
2022/04/21 03:33:57;;;;;;;;;;;19.90;46.50;;;;;;5060362;28;20015;-77
2022/04/21 03:36:23;;;;;;;;;;;19.90;46.60;;;;;;5097421;28;20035;-75
2022/04/21 03:38:48;;;;;;;;;;;19.90;46.50;;;;;;5061174;28;20270;-80
2022/04/21 03:41:14;;;;;;;;;;;19.80;46.50;;;;;;5057265;28;19920;-80
2022/04/21 03:43:39;;;;;;;;;;;19.90;46.60;;;;;;5059081;28;19963;-73
2022/04/21 03:46:05;;;;;;;;;;;19.80;46.50;;;;;;5057878;28;19931;-73
2022/04/21 03:48:30;;;;;;;;;;;19.80;46.60;;;;;;5059555;28;20387;-74
2022/04/21 03:50:56;;;;;;;;;;;19.80;46.60;;;;;;5055393;28;19931;-72
2022/04/21 03:53:21;;;;;;;;;;;20.00;50.90;;;;;;5059333;28;20357;-75
2022/04/21 03:55:47;;;;;;;;;;;19.90;49.60;;;;;;5075012;28;19920;-75
2022/04/21 03:58:13;;;;;;;;;;;19.90;49.70;;;;;;5057932;28;19927;-75
2022/04/21 04:00:38;;;;;;;;;;;19.90;50.40;;;;;;5042248;28;19943;-74
2022/04/21 04:03:04;;;;;;;;;;;20.00;52.20;;;;;;5056363;28;19950;-73
2022/04/21 04:05:29;;;;;;;;;;;20.00;55.40;;;;;;5078477;28;19971;-78
2022/04/21 04:10:52;;;;;;;;;;;19.90;77.00;;;;;;5058374;28;20240;-73
2022/04/21 04:13:21;;;;;;;;;;;20.10;79.50;;;;;;5078742;28;20021;-73
2022/04/21 04:15:50;;;;;;;;;;;20.00;78.40;;;;;;5056894;28;19959;-71
2022/04/21 04:18:16;;;;;;;;;;;19.90;77.60;;;;;;5057798;28;20307;-75
2022/04/21 04:20:42;;;;;;;;;;;20.20;77.40;;;;;;5049490;28;19917;-75
2022/04/21 04:23:07;;;;;;;;;;;19.80;76.80;;;;;;5060049;28;20268;-72
2022/04/21 04:25:33;;;;;;;;;;;19.80;76.70;;;;;;5075300;28;19924;-72
2022/04/21 04:27:58;;;;;;;;;;;20.00;76.70;;;;;;5054821;28;19926;-73
2022/04/21 04:30:24;;;;;;;;;;;20.00;76.70;;;;;;5057554;28;19928;-74
2022/04/21 04:32:49;;;;;;;;;;;19.90;76.90;;;;;;5057348;28;20578;-74
2022/04/21 04:35:15;;;;;;;;;;;19.70;76.80;;;;;;5057068;28;20264;-74
2022/04/21 04:37:40;;;;;;;;;;;19.80;76.70;;;;;;5055723;28;19924;-72
2022/04/21 04:40:06;;;;;;;;;;;19.80;76.90;;;;;;5060025;28;19959;-74
2022/04/21 04:42:31;;;;;;;;;;;19.80;77.50;;;;;;5054983;28;19973;-73
2022/04/21 04:47:41;;;;;;;;;;;19.80;77.20;;;;;;5055416;28;20347;-74
2022/04/21 04:50:07;;;;;;;;;;;19.70;75.30;;;;;;5058169;28;20018;-72
2022/04/21 04:52:33;;;;;;;;;;;19.90;75.80;;;;;;5061216;28;20010;-75
2022/04/21 04:54:58;;;;;;;;;;;19.90;77.10;;;;;;5059037;28;19924;-73
2022/04/21 04:57:24;;;;;;;;;;;19.90;80.50;;;;;;5057362;28;19924;-74
2022/04/21 04:59:49;;;;;;;;;;;19.90;84.10;;;;;;5074365;28;19990;-74
2022/04/21 05:02:17;;;;;;;;;;;19.80;86.50;;;;;;5079754;28;19980;-75
2022/04/21 05:04:42;;;;;;;;;;;19.70;86.60;;;;;;5059308;28;19920;-77
2022/04/21 05:07:08;;;;;;;;;;;19.80;86.80;;;;;;5057213;28;20397;-72
2022/04/21 05:09:33;;;;;;;;;;;19.90;86.40;;;;;;5055709;28;20054;-73
2022/04/21 05:11:59;;;;;;;;;;;19.90;86.30;;;;;;5039812;28;19964;-75
2022/04/21 05:14:25;;;;;;;;;;;19.80;85.60;;;;;;5056250;28;20437;-72
2022/04/21 05:16:50;;;;;;;;;;;19.70;78.20;;;;;;5057248;28;19927;-74
2022/04/21 05:19:17;;;;;;;;;;;19.70;77.60;;;;;;5074146;28;19928;-74
2022/04/21 05:21:44;;;;;;;;;;;19.70;77.00;;;;;;5056080;28;19916;-76
2022/04/21 05:24:12;;;;;;;;;;;20.00;77.40;;;;;;5052994;28;19927;-75
2022/04/21 05:26:38;;;;;;;;;;;19.80;81.10;;;;;;5042015;28;19924;-73
2022/04/21 05:30:55;;;;;;;;;;;19.70;82.00;;;;;;5073827;28;19927;-73
2022/04/21 05:31:58;;;;;;;;;;;19.60;88.20;;;;;;5058363;28;19963;-77
2022/04/21 05:34:24;;;;;;;;;;;19.80;87.30;;;;;;5042631;28;20018;-83
2022/04/21 05:36:50;;;;;;;;;;;19.80;86.70;;;;;;5056658;28;19919;-72
2022/04/21 05:39:15;;;;;;;;;;;19.70;86.20;;;;;;5058375;28;19969;-74
2022/04/21 05:41:42;;;;;;;;;;;19.70;86.90;;;;;;5057285;28;19970;-72
2022/04/21 05:44:07;;;;;;;;;;;19.80;88.30;;;;;;5055723;28;19924;-77
2022/04/21 05:46:33;;;;;;;;;;;19.80;88.90;;;;;;5075462;28;20337;-74
2022/04/21 05:48:58;;;;;;;;;;;19.60;90.10;;;;;;5042793;28;19924;-76
2022/04/21 05:51:24;;;;;;;;;;;19.70;90.80;;;;;;5059647;28;20256;-73
2022/04/21 05:53:50;;;;;;;;;;;19.70;91.00;;;;;;5079891;28;19975;-74
2022/04/21 05:56:16;;;;;;;;;;;19.80;90.40;;;;;;5067957;28;19955;-74
2022/04/21 05:58:41;;;;;;;;;;;19.70;90.60;;;;;;5066578;28;20659;-72
2022/04/21 06:01:07;;;;;;;;;;;19.80;90.80;;;;;;5052721;28;19978;-82
2022/04/21 06:03:37;;;;;;;;;;;20.00;90.80;;;;;;5042003;28;20338;-74
2022/04/21 06:06:03;;;;;;;;;;;20.00;91.20;;;;;;5062029;28;19963;-73
2022/04/21 06:08:29;;;;;;;;;;;19.90;91.70;;;;;;5048525;28;20023;-78
2022/04/21 06:10:56;;;;;;;;;;;19.90;91.70;;;;;;5064048;28;20008;-74
2022/04/21 06:13:25;;;;;;;;;;;19.80;91.00;;;;;;5060277;28;19920;-73
2022/04/21 06:15:51;;;;;;;;;;;20.10;90.80;;;;;;5064856;28;19928;-74
2022/04/21 06:18:16;;;;;;;;;;;19.90;90.60;;;;;;5061789;28;19931;-80
2022/04/21 06:20:42;;;;;;;;;;;20.00;90.70;;;;;;5043077;28;19927;-75
2022/04/21 06:23:07;;;;;;;;;;;20.00;90.50;;;;;;5043942;28;19939;-73
2022/04/21 06:25:33;;;;;;;;;;;20.10;90.60;;;;;;5076739;28;19924;-84
2022/04/21 06:27:59;;;;;;;;;;;20.20;90.80;;;;;;5055329;28;20026;-80
2022/04/21 06:30:24;;;;;;;;;;;20.20;91.10;;;;;;5056684;28;21249;-73
2022/04/21 06:32:50;;;;;;;;;;;20.30;91.50;;;;;;5061162;28;19977;-74
2022/04/21 06:35:16;;;;;;;;;;;20.40;92.00;;;;;;5074821;28;19931;-74
2022/04/21 06:37:42;;;;;;;;;;;;;;;;;;5073888;28;19921;-72
2022/04/21 06:40:09;;;;;;;;;;;;;;;;;;5048829;28;19974;-74
2022/04/21 06:42:36;;;;;;;;;;;;;;;;;;5056469;28;19931;-74
2022/04/21 06:48:04;;;;;;;;;;;20.50;48.40;;;;;;5053988;28;19970;-72
2022/04/21 06:50:30;;;;;;;;;;;20.50;49.10;;;;;;5061631;28;19969;-72
2022/04/21 06:52:56;;;;;;;;;;;20.50;49.20;;;;;;5059122;28;20015;-85
2022/04/21 06:55:21;;;;;;;;;;;20.50;49.40;;;;;;5039887;28;20100;-81
2022/04/21 06:57:46;;;;;;;;;;;20.60;49.40;;;;;;5073964;28;19967;-72
2022/04/21 07:00:12;;;;;;;;;;;20.60;49.30;;;;;;5059639;28;20399;-75
2022/04/21 07:02:38;;;;;;;;;;;20.90;66.00;;;;;;5076503;28;19928;-80
2022/04/21 07:05:07;;;;;;;;;;;20.90;67.20;;;;;;5057303;28;20011;-74
2022/04/21 07:07:34;;;;;;;;;;;;;;;;;;5070669;28;19924;-75
2022/04/21 07:10:00;;;;;;;;;;;20.70;93.10;;;;;;5052877;28;19923;-76
2022/04/21 07:12:29;;;;;;;;;;;20.90;49.00;;;;;;5069802;28;19924;-73
2022/04/21 07:14:59;;;;;;;;;;;20.90;49.60;;;;;;5084738;28;20335;-73
2022/04/21 07:17:24;;;;;;;;;;;21.00;48.80;;;;;;5053350;28;19931;-74
2022/04/21 07:19:53;;;;;;;;;;;21.00;48.60;;;;;;5064575;28;19924;-74
2022/04/21 07:22:20;;;;;;;;;;;21.00;48.50;;;;;;5055552;28;20346;-73
2022/04/21 07:24:49;;;;;;;;;;;21.10;48.50;;;;;;5051470;28;19920;-74
2022/04/21 07:27:14;;;;;;;;;;;21.10;48.40;;;;;;5069073;28;19924;-76
2022/04/21 07:29:40;;;;;;;;;;;21.10;48.30;;;;;;5060755;28;19928;-74
2022/04/21 07:32:05;;;;;;;;;;;21.20;48.20;;;;;;5068869;28;19938;-74
2022/04/21 07:34:31;;;;;;;;;;;21.20;48.20;;;;;;5058574;28;20360;-75
2022/04/21 07:36:56;;;;;;;;;;;21.30;48.10;;;;;;5078165;28;20121;-73
2022/04/21 07:39:22;;;;;;;;;;;21.30;48.00;;;;;;5067516;28;20481;-74
2022/04/21 07:41:47;;;;;;;;;;;21.40;48.00;;;;;;5067741;28;19924;-74
2022/04/21 07:44:13;;;;;;;;;;;21.40;47.90;;;;;;5069063;28;20299;-72
2022/04/21 07:46:38;;;;;;;;;;;21.40;47.70;;;;;;5065372;28;19951;-74
2022/04/21 07:54:49;;;;;;;;;;;21.50;47.40;;;;;;5050279;28;19920;-73
2022/04/21 07:57:15;;;;;;;;;;;21.50;46.90;;;;;;5063651;28;19920;-72
2022/04/21 07:59:41;;;;;;;;;;;21.50;46.40;;;;;;5050166;28;19968;-73
2022/04/21 08:02:08;;;;;;;;;;;21.50;46.10;;;;;;5084398;28;20383;-74
2022/04/21 08:04:34;;;;;;;;;;;21.50;45.80;;;;;;5063721;28;19928;-74
2022/04/21 08:07:00;;;;;;;;;;;21.50;45.70;;;;;;5066924;28;20217;-74
2022/04/21 08:09:26;;;;;;;;;;;21.50;45.60;;;;;;5084959;28;19931;-75
2022/04/21 08:11:51;;;;;;;;;;;21.50;45.50;;;;;;5047958;28;19924;-74
2022/04/21 08:14:17;;;;;;;;;;;21.60;45.50;;;;;;5065072;28;20295;-76
2022/04/21 08:16:43;;;;;;;;;;;21.70;45.50;;;;;;5048644;28;20390;-75
2022/04/21 08:19:09;;;;;;;;;;;21.70;45.40;;;;;;5064462;28;19924;-77
2022/04/21 08:21:35;;;;;;;;;;;21.70;45.40;;;;;;5065826;28;19924;-75
2022/04/21 08:32:33;;;;;;;;;;;21.80;45.30;;;;;;5047097;28;19924;-76
2022/04/21 08:34:58;;;;;;;;;;;21.90;45.10;;;;;;5065488;28;19970;-76
2022/04/21 08:37:24;;;;;;;;;;;21.90;45.00;;;;;;5066105;28;19920;-79
2022/04/21 08:39:49;;;;;;;;;;;22.00;45.00;;;;;;5064752;28;20462;-75
2022/04/21 08:42:15;;;;;;;;;;;22.00;44.90;;;;;;5065125;28;19930;-79
2022/04/21 08:44:43;;;;;;;;;;;22.00;44.90;;;;;;5065493;28;20425;-76
2022/04/21 08:47:17;;;;;;;;;;;22.10;44.90;;;;;;5065272;28;19924;-76
2022/04/21 08:49:43;;;;;;;;;;;22.10;44.90;;;;;;5063320;28;20031;-73
2022/04/21 08:52:11;;;;;;;;;;;22.10;44.80;;;;;;5048478;28;19971;-74
2022/04/21 08:54:36;;;;;;;;;;;22.10;44.70;;;;;;5063069;28;19924;-73
2022/04/21 08:57:02;;;;;;;;;;;22.20;44.70;;;;;;5065620;28;19924;-74
2022/04/21 08:59:27;;;;;;;;;;;22.20;44.70;;;;;;5065302;28;19928;-80
2022/04/21 09:01:53;;;;;;;;;;;22.20;44.60;;;;;;5064953;28;20225;-74
2022/04/21 09:04:18;;;;;;;;;;;22.20;44.50;;;;;;5064784;28;19924;-80
2022/04/21 09:06:44;;;;;;;;;;;22.20;44.40;;;;;;5063447;28;20060;-76
2022/04/21 09:09:13;;;;;;;;;;;22.20;44.30;;;;;;5063942;28;19927;-81
2022/04/21 09:11:39;;;;;;;;;;;22.30;44.30;;;;;;5063132;28;19921;-74
2022/04/21 09:14:04;;;;;;;;;;;22.30;44.30;;;;;;5065471;28;19920;-75
2022/04/21 09:16:34;;;;;;;;;;;22.30;44.30;;;;;;5057125;28;19924;-83
2022/04/21 09:19:03;;;;;;;;;;;22.30;44.20;;;;;;5039082;28;19921;-75
2022/04/21 09:21:35;;;;;;;;;;;22.30;44.20;;;;;;5064501;28;20010;-75
2022/04/21 09:24:00;;;;;;;;;;;22.30;44.10;;;;;;5062730;28;20447;-84
2022/04/21 09:26:26;;;;;;;;;;;22.40;44.10;;;;;;5048614;28;19974;-76
2022/04/21 09:28:52;;;;;;;;;;;22.30;44.00;;;;;;5066817;28;20377;-77
2022/04/21 09:31:18;;;;;;;;;;;22.40;44.00;;;;;;5067986;28;19920;-79
2022/04/21 09:33:45;;;;;;;;;;;22.40;44.00;;;;;;5069054;28;19932;-85
2022/04/21 09:36:10;;;;;;;;;;;22.40;44.00;;;;;;5068652;28;19920;-75
2022/04/21 09:38:37;;;;;;;;;;;22.40;43.90;;;;;;5067267;28;19927;-84
2022/04/21 09:41:13;;;;;;;;;;;22.50;44.00;;;;;;5066927;28;19991;-76
2022/04/21 09:43:39;;;;;;;;;;;22.40;43.90;;;;;;5068293;28;19927;-86
2022/04/21 09:46:11;;;;;;;;;;;22.50;43.90;;;;;;5066547;28;19931;-75
2022/04/21 09:48:36;;;;;;;;;;;22.50;43.90;;;;;;5051172;28;19927;-79
2022/04/21 09:51:08;;;;;;;;;;;22.50;43.80;;;;;;5066837;28;19928;-81
2022/04/21 09:53:53;;;;;;;;;;;22.50;43.80;;;;;;5067193;28;20383;-77
2022/04/21 09:56:29;;;;;;;;;;;22.50;43.80;;;;;;5068231;28;19927;-75
2022/04/21 09:58:54;;;;;;;;;;;22.50;43.80;;;;;;5050765;28;19947;-79
2022/04/21 10:01:20;;;;;;;;;;;22.50;43.80;;;;;;5069971;28;20367;-75
2022/04/21 10:03:46;;;;;;;;;;;22.50;44.10;;;;;;5065865;28;20430;-82
2022/04/21 10:06:13;;;;;;;;;;;22.50;43.80;;;;;;5041813;28;20435;-77
2022/04/21 10:08:40;;;;;;;;;;;22.50;43.70;;;;;;5066234;28;19970;-77
2022/04/21 10:11:06;;;;;;;;;;;22.50;43.60;;;;;;5049942;28;19956;-75
2022/04/21 10:13:32;;;;;;;;;;;22.50;43.70;;;;;;5067744;28;19930;-73
2022/04/21 10:15:58;;;;;;;;;;;22.50;43.70;;;;;;5066434;28;19916;-75
2022/04/21 10:18:24;;;;;;;;;;;22.60;43.70;;;;;;5065840;28;19950;-82
2022/04/21 10:20:52;;;;;;;;;;;22.60;43.60;;;;;;5066783;28;19920;-82
2022/04/21 10:23:18;;;;;;;;;;;22.50;43.30;;;;;;5059461;28;19925;-76
2022/04/21 10:25:44;;;;;;;;;;;22.50;43.10;;;;;;5061177;28;19924;-75
2022/04/21 10:28:28;;;;;;;;;;;22.40;42.90;;;;;;5064495;28;20010;-81
2022/04/21 10:30:56;;;;;;;;;;;22.40;42.70;;;;;;5057653;28;20490;-82
2022/04/21 10:33:41;;;;;;;;;;;22.40;42.60;;;;;;5064968;28;19925;-73
2022/04/21 10:36:07;;;;;;;;;;;22.40;42.50;;;;;;5045697;28;19924;-75
2022/04/21 10:38:32;;;;;;;;;;;22.40;42.40;;;;;;5046916;28;19927;-74
2022/04/21 10:41:03;;;;;;;;;;;22.30;42.40;;;;;;5064610;28;20269;-75
2022/04/21 10:43:49;;;;;;;;;;;22.30;42.30;;;;;;5050895;28;19927;-74
2022/04/21 10:46:18;;;;;;;;;;;22.30;42.30;;;;;;5062503;28;20054;-75
2022/04/21 10:48:44;;;;;;;;;;;22.30;42.30;;;;;;5058033;28;19964;-76
2022/04/21 10:51:10;;;;;;;;;;;22.20;42.20;;;;;;5089103;28;20096;-76
2022/04/21 10:59:27;;;;;;;;;;;22.20;42.00;;;;;;5056864;28;19929;-76
2022/04/21 11:01:54;;;;;;;;;;;22.20;42.00;;;;;;5067650;28;19920;-73
2022/04/21 11:04:21;;;;;;;;;;;22.20;42.00;;;;;;5066075;28;19924;-74
2022/04/21 11:06:46;;;;;;;;;;;22.20;41.90;;;;;;5066922;28;19924;-74
2022/04/21 11:09:30;;;;;;;;;;;22.20;41.80;;;;;;5064308;28;20334;-75
2022/04/21 11:11:57;;;;;;;;;;;22.20;41.90;;;;;;5065566;28;19924;-74
2022/04/21 11:14:29;;;;;;;;;;;22.20;41.90;;;;;;5066149;28;20240;-77
2022/04/21 11:16:55;;;;;;;;;;;22.20;41.70;;;;;;5063130;28;20462;-76
2022/04/21 11:19:31;;;;;;;;;;;22.20;41.70;;;;;;5058484;28;21001;-78
2022/04/21 11:21:57;;;;;;;;;;;22.30;41.80;;;;;;5059398;28;19924;-78
2022/04/21 11:24:23;;;;;;;;;;;22.30;41.70;;;;;;5064029;28;20617;-78
2022/04/21 11:26:55;;;;;;;;;;;22.30;41.80;;;;;;5066677;28;19921;-75
2022/04/21 11:29:21;;;;;;;;;;;22.30;41.80;;;;;;5065817;28;19970;-77
2022/04/21 11:31:47;;;;;;;;;;;22.30;41.90;;;;;;5067163;28;19924;-77
2022/04/21 11:34:20;;;;;;;;;;;22.40;41.90;;;;;;5066517;28;19930;-81
2022/04/21 11:36:45;;;;;;;;;;;22.40;41.90;;;;;;5066214;28;20042;-83
2022/04/21 11:39:12;;;;;;;;;;;22.40;41.90;;;;;;5059269;28;20023;-77
2022/04/21 11:41:41;;;;;;;;;;;22.40;41.80;;;;;;5063662;28;20015;-82
2022/04/21 11:44:07;;;;;;;;;;;22.40;41.80;;;;;;5065625;28;20447;-81
2022/04/21 11:46:36;;;;;;;;;;;22.40;41.70;;;;;;5065889;28;19974;-76
2022/04/21 11:49:02;;;;;;;;;;;22.40;41.60;;;;;;5049672;28;20127;-78
2022/04/21 11:51:28;;;;;;;;;;;22.40;41.50;;;;;;5064864;28;20431;-82
2022/04/21 11:53:54;;;;;;;;;;;22.40;41.70;;;;;;5065990;28;19924;-82
2022/04/21 11:56:21;;;;;;;;;;;22.50;41.70;;;;;;5040109;28;19924;-81
2022/04/21 11:58:47;;;;;;;;;;;22.50;41.60;;;;;;5041509;28;20405;-81
2022/04/21 12:06:50;;;;;;;;;;;22.50;41.70;;;;;;5058669;28;20346;-82
2022/04/21 12:09:16;;;;;;;;;;;22.50;41.70;;;;;;5040734;28;19936;-85
2022/04/21 12:11:42;;;;;;;;;;;22.60;41.80;;;;;;5057390;28;19927;-81
2022/04/21 12:14:08;;;;;;;;;;;22.50;41.80;;;;;;5040154;28;19939;-85
2022/04/21 12:16:40;;;;;;;;;;;22.60;41.80;;;;;;5057532;28;19913;-82
2022/04/21 12:19:09;;;;;;;;;;;22.60;41.80;;;;;;5053869;28;19924;-81
2022/04/21 12:21:35;;;;;;;;;;;22.60;41.80;;;;;;5040261;28;20383;-81
2022/04/21 12:24:15;;;;;;;;;;;22.60;41.80;;;;;;5056265;28;19920;-77
2022/04/21 12:26:50;;;;;;;;;;;22.60;41.90;;;;;;5041682;28;20414;-79
2022/04/21 12:29:16;;;;;;;;;;;22.60;41.80;;;;;;5054307;28;19971;-79
2022/04/21 12:31:55;;;;;;;;;;;22.70;41.90;;;;;;5056230;28;19963;-73
2022/04/21 12:34:24;;;;;;;;;;;22.70;41.90;;;;;;5057619;28;19924;-74
2022/04/21 12:36:56;;;;;;;;;;;22.70;41.90;;;;;;5058408;28;19928;-75
2022/04/21 12:39:22;;;;;;;;;;;22.70;41.80;;;;;;5056920;28;19924;-75
2022/04/21 12:41:48;;;;;;;;;;;22.70;41.80;;;;;;5055010;28;19925;-80
2022/04/21 12:44:14;;;;;;;;;;;22.70;41.80;;;;;;5057287;28;19967;-78
2022/04/21 12:46:41;;;;;;;;;;;22.80;42.00;;;;;;5056567;28;19939;-77
2022/04/21 12:49:07;;;;;;;;;;;22.70;41.90;;;;;;5059959;28;20298;-76
2022/04/21 12:51:32;;;;;;;;;;;22.70;42.00;;;;;;5057445;28;20002;-77
2022/04/21 12:53:58;;;;;;;;;;;22.70;41.90;;;;;;5057202;28;20012;-75
2022/04/21 12:56:42;;;;;;;;;;;22.80;41.90;;;;;;5057424;28;19920;-76
2022/04/21 12:59:07;;;;;;;;;;;22.80;42.00;;;;;;5041085;28;19921;-74
2022/04/21 13:01:33;;;;;;;;;;;22.80;42.30;;;;;;5056789;28;19982;-74
2022/04/21 13:03:59;;;;;;;;;;;22.80;42.20;;;;;;5058048;28;20425;-74
2022/04/21 13:06:29;;;;;;;;;;;22.80;42.10;;;;;;5059102;28;19920;-72
2022/04/21 13:08:55;;;;;;;;;;;22.80;42.30;;;;;;5055153;28;19935;-73
2022/04/21 13:11:20;;;;;;;;;;;22.90;42.50;;;;;;5056173;28;20145;-74
2022/04/21 13:13:46;;;;;;;;;;;22.90;42.30;;;;;;5058037;28;19932;-75
2022/04/21 13:16:12;;;;;;;;;;;22.90;42.40;;;;;;5054822;28;19998;-72
2022/04/21 13:18:37;;;;;;;;;;;22.90;42.50;;;;;;5056228;28;20384;-79
2022/04/21 13:23:47;;;;;;;;;;;22.90;42.30;;;;;;5064121;28;19920;-87
2022/04/21 13:26:12;;;;;;;;;;;22.90;42.20;;;;;;5065602;28;19920;-83
2022/04/21 13:28:38;;;;;;;;;;;22.90;42.30;;;;;;5064934;28;19920;-78
2022/04/21 13:33:48;;;;;;;;;;;22.90;42.70;;;;;;5058980;28;20783;-82
2022/04/21 13:36:13;;;;;;;;;;;22.80;42.50;;;;;;5062560;28;19947;-80
2022/04/21 13:38:39;;;;;;;;;;;22.80;42.30;;;;;;5082850;28;19921;-77
2022/04/21 13:41:04;;;;;;;;;;;22.80;42.20;;;;;;5064223;28;20291;-79
2022/04/21 13:43:30;;;;;;;;;;;22.80;42.20;;;;;;5063997;28;20379;-84
2022/04/21 13:46:00;;;;;;;;;;;22.80;42.30;;;;;;5064416;28;20320;-81
2022/04/21 13:48:25;;;;;;;;;;;22.80;42.50;;;;;;5063056;28;20434;-78
2022/04/21 13:50:51;;;;;;;;;;;22.80;42.30;;;;;;5063928;28;20018;-76
2022/04/21 13:53:16;;;;;;;;;;;22.80;42.40;;;;;;5062412;28;19927;-81
2022/04/21 13:55:42;;;;;;;;;;;22.70;42.30;;;;;;5064920;28;19931;-80
2022/04/21 13:58:07;;;;;;;;;;;22.80;41.90;;;;;;5063273;28;19924;-82
2022/04/21 14:00:33;;;;;;;;;;;22.70;41.70;;;;;;5064456;28;20218;-79
2022/04/21 14:02:58;;;;;;;;;;;22.70;41.60;;;;;;5064503;28;19924;-74
2022/04/21 14:05:24;;;;;;;;;;;22.70;41.50;;;;;;5046259;28;19921;-83
2022/04/21 14:07:50;;;;;;;;;;;22.70;41.60;;;;;;5063594;28;19994;-73
2022/04/21 14:10:15;;;;;;;;;;;22.70;41.40;;;;;;5063569;28;19920;-86
2022/04/21 14:12:44;;;;;;;;;;;22.70;41.20;;;;;;5055905;28;19924;-84
2022/04/21 14:15:10;;;;;;;;;;;22.70;41.20;;;;;;5055892;28;19974;-74
2022/04/21 14:17:36;;;;;;;;;;;22.70;41.20;;;;;;5094680;28;19924;-73
2022/04/21 14:20:03;;;;;;;;;;;22.70;41.10;;;;;;5065792;28;19966;-74
2022/04/21 14:22:28;;;;;;;;;;;22.70;41.10;;;;;;5066179;28;20501;-74
2022/04/21 14:24:57;;;;;;;;;;;22.70;40.70;;;;;;5069207;28;19925;-73
2022/04/21 14:27:22;;;;;;;;;;;22.70;40.80;;;;;;5060069;28;20288;-81
2022/04/21 14:29:48;;;;;;;;;;;22.70;40.90;;;;;;5067515;28;19923;-75
2022/04/21 14:32:14;;;;;;;;;;;22.70;41.20;;;;;;5066163;28;19998;-73
2022/04/21 14:34:40;;;;;;;;;;;22.60;41.20;;;;;;5068506;28;20322;-74
2022/04/21 14:37:05;;;;;;;;;;;22.60;41.40;;;;;;5067396;28;19932;-79
2022/04/21 14:44:59;;;;;;;;;;;22.60;41.70;;;;;;5062248;28;20268;-79
2022/04/21 14:47:24;;;;;;;;;;;22.70;41.60;;;;;;5067233;28;19924;-77
2022/04/21 14:49:50;;;;;;;;;;;22.70;41.70;;;;;;5046904;28;20442;-82
2022/04/21 14:52:15;;;;;;;;;;;22.70;41.50;;;;;;5048801;28;20007;-76
2022/04/21 14:54:41;;;;;;;;;;;22.70;41.30;;;;;;5066133;28;20191;-78
2022/04/21 14:57:07;;;;;;;;;;;22.70;41.40;;;;;;5051069;28;20382;-77
2022/04/21 14:59:35;;;;;;;;;;;22.70;41.50;;;;;;5068834;28;19931;-82
2022/04/21 15:02:01;;;;;;;;;;;22.80;41.60;;;;;;5067025;28;19931;-78
2022/04/21 15:04:28;;;;;;;;;;;22.80;41.80;;;;;;5066606;28;21480;-72
2022/04/21 15:06:53;;;;;;;;;;;22.80;41.80;;;;;;5063607;28;19982;-74
2022/04/21 15:09:19;;;;;;;;;;;22.80;41.60;;;;;;5056201;28;19924;-76
2022/04/21 15:11:45;;;;;;;;;;;22.80;41.70;;;;;;5056208;28;19921;-75
2022/04/21 15:14:11;;;;;;;;;;;22.80;41.80;;;;;;5056051;28;19932;-76
2022/04/21 15:16:37;;;;;;;;;;;22.80;41.80;;;;;;5042615;28;19920;-76
2022/04/21 15:19:02;;;;;;;;;;;22.80;41.60;;;;;;5053090;28;20007;-79
2022/04/21 15:21:28;;;;;;;;;;;22.80;41.70;;;;;;5059262;28;19924;-76